sensor_id;sensor_type;location;lat;lon;timestamp;P1;durP1;ratioP1;P2;durP2;ratioP2
53890;SDS011;41337;51.400;-2.342;2022-09-13T00:00:35;2.88;;;2.05;;
53890;SDS011;41337;51.400;-2.342;2022-09-13T00:05:37;2.35;;;2.08;;
53890;SDS011;41337;51.400;-2.342;2022-09-13T00:10:38;2.40;;;1.88;;
53890;SDS011;41337;51.400;-2.342;2022-09-13T00:15:47;1.92;;;1.83;;
53890;SDS011;41337;51.400;-2.342;2022-09-13T00:20:49;4.18;;;2.20;;
53890;SDS011;41337;51.400;-2.342;2022-09-13T00:26:01;2.88;;;2.30;;
53890;SDS011;41337;51.400;-2.342;2022-09-13T00:31:04;2.05;;;1.85;;
53890;SDS011;41337;51.400;-2.342;2022-09-13T00:36:07;4.85;;;1.98;;
53890;SDS011;41337;51.400;-2.342;2022-09-13T00:41:13;3.00;;;2.25;;
53890;SDS011;41337;51.400;-2.342;2022-09-13T00:46:18;3.85;;;2.45;;
53890;SDS011;41337;51.400;-2.342;2022-09-13T00:51:26;4.13;;;2.92;;
53890;SDS011;41337;51.400;-2.342;2022-09-13T00:56:35;4.72;;;3.88;;
53890;SDS011;41337;51.400;-2.342;2022-09-13T01:01:43;4.78;;;4.35;;
53890;SDS011;41337;51.400;-2.342;2022-09-13T01:06:52;6.35;;;5.68;;
53890;SDS011;41337;51.400;-2.342;2022-09-13T01:11:58;7.00;;;6.28;;
53890;SDS011;41337;51.400;-2.342;2022-09-13T01:17:03;7.93;;;7.03;;
53890;SDS011;41337;51.400;-2.342;2022-09-13T01:33:32;10.27;;;7.55;;
53890;SDS011;41337;51.400;-2.342;2022-09-13T01:39:13;12.63;;;9.48;;
53890;SDS011;41337;51.400;-2.342;2022-09-13T01:55:33;16.85;;;13.20;;
53890;SDS011;41337;51.400;-2.342;2022-09-13T02:06:39;20.75;;;15.00;;
53890;SDS011;41337;51.400;-2.342;2022-09-13T02:12:04;22.08;;;15.35;;
53890;SDS011;41337;51.400;-2.342;2022-09-13T02:17:14;16.65;;;13.60;;
53890;SDS011;41337;51.400;-2.342;2022-09-13T02:27:26;22.52;;;14.73;;
53890;SDS011;41337;51.400;-2.342;2022-09-13T02:32:42;22.67;;;15.15;;
53890;SDS011;41337;51.400;-2.342;2022-09-13T02:37:59;20.85;;;14.15;;
53890;SDS011;41337;51.400;-2.342;2022-09-13T02:43:13;17.63;;;12.73;;
53890;SDS011;41337;51.400;-2.342;2022-09-13T02:48:27;19.15;;;13.80;;
53890;SDS011;41337;51.400;-2.342;2022-09-13T02:53:51;16.90;;;11.52;;
53890;SDS011;41337;51.400;-2.342;2022-09-13T02:59:15;14.95;;;11.50;;
53890;SDS011;41337;51.400;-2.342;2022-09-13T03:04:25;13.10;;;10.95;;
53890;SDS011;41337;51.400;-2.342;2022-09-13T03:09:27;13.18;;;9.50;;
53890;SDS011;41337;51.400;-2.342;2022-09-13T03:30:40;9.35;;;6.38;;
53890;SDS011;41337;51.400;-2.342;2022-09-13T03:40:51;4.97;;;4.57;;
53890;SDS011;41337;51.400;-2.342;2022-09-13T03:46:26;6.30;;;4.40;;
53890;SDS011;41337;51.400;-2.342;2022-09-13T03:51:52;3.90;;;3.15;;
53890;SDS011;41337;51.400;-2.342;2022-09-13T03:57:13;4.90;;;3.08;;
53890;SDS011;41337;51.400;-2.342;2022-09-13T04:02:20;3.58;;;2.35;;
53890;SDS011;41337;51.400;-2.342;2022-09-13T04:07:23;6.10;;;2.33;;
53890;SDS011;41337;51.400;-2.342;2022-09-13T04:12:24;5.13;;;2.50;;
53890;SDS011;41337;51.400;-2.342;2022-09-13T04:17:26;3.50;;;2.30;;
53890;SDS011;41337;51.400;-2.342;2022-09-13T04:22:30;2.90;;;1.80;;
53890;SDS011;41337;51.400;-2.342;2022-09-13T04:27:31;2.85;;;1.80;;
53890;SDS011;41337;51.400;-2.342;2022-09-13T04:32:32;3.05;;;2.00;;
53890;SDS011;41337;51.400;-2.342;2022-09-13T04:37:33;4.55;;;1.45;;
53890;SDS011;41337;51.400;-2.342;2022-09-13T04:42:33;9.23;;;2.00;;
53890;SDS011;41337;51.400;-2.342;2022-09-13T04:47:34;2.33;;;1.35;;
53890;SDS011;41337;51.400;-2.342;2022-09-13T04:52:35;4.70;;;1.55;;
53890;SDS011;41337;51.400;-2.342;2022-09-13T04:57:36;5.60;;;1.58;;
53890;SDS011;41337;51.400;-2.342;2022-09-13T05:02:36;4.20;;;1.70;;
53890;SDS011;41337;51.400;-2.342;2022-09-13T05:07:37;3.38;;;1.40;;
53890;SDS011;41337;51.400;-2.342;2022-09-13T05:12:44;4.55;;;1.50;;
53890;SDS011;41337;51.400;-2.342;2022-09-13T05:17:45;2.20;;;1.20;;
53890;SDS011;41337;51.400;-2.342;2022-09-13T05:22:46;2.53;;;1.20;;
53890;SDS011;41337;51.400;-2.342;2022-09-13T05:27:47;3.47;;;1.77;;
53890;SDS011;41337;51.400;-2.342;2022-09-13T05:32:48;4.30;;;1.15;;
53890;SDS011;41337;51.400;-2.342;2022-09-13T05:37:56;2.65;;;1.13;;
53890;SDS011;41337;51.400;-2.342;2022-09-13T05:42:57;4.78;;;1.20;;
53890;SDS011;41337;51.400;-2.342;2022-09-13T05:48:03;3.72;;;1.48;;
53890;SDS011;41337;51.400;-2.342;2022-09-13T05:53:04;3.08;;;1.65;;
53890;SDS011;41337;51.400;-2.342;2022-09-13T05:58:05;3.90;;;1.65;;
53890;SDS011;41337;51.400;-2.342;2022-09-13T06:03:06;2.80;;;1.20;;
53890;SDS011;41337;51.400;-2.342;2022-09-13T06:08:07;3.72;;;1.27;;
53890;SDS011;41337;51.400;-2.342;2022-09-13T06:13:08;5.32;;;1.42;;
53890;SDS011;41337;51.400;-2.342;2022-09-13T06:18:09;4.47;;;1.10;;
53890;SDS011;41337;51.400;-2.342;2022-09-13T06:23:09;3.42;;;0.95;;
53890;SDS011;41337;51.400;-2.342;2022-09-13T06:28:10;6.50;;;1.10;;
53890;SDS011;41337;51.400;-2.342;2022-09-13T06:39:04;2.80;;;1.10;;
53890;SDS011;41337;51.400;-2.342;2022-09-13T06:44:05;4.57;;;1.10;;
53890;SDS011;41337;51.400;-2.342;2022-09-13T06:49:06;6.53;;;1.42;;
53890;SDS011;41337;51.400;-2.342;2022-09-13T06:54:11;3.88;;;1.00;;
53890;SDS011;41337;51.400;-2.342;2022-09-13T06:59:12;2.50;;;1.00;;
53890;SDS011;41337;51.400;-2.342;2022-09-13T07:04:14;8.68;;;1.25;;
53890;SDS011;41337;51.400;-2.342;2022-09-13T07:09:17;3.28;;;0.70;;
53890;SDS011;41337;51.400;-2.342;2022-09-13T07:14:26;9.15;;;1.10;;
53890;SDS011;41337;51.400;-2.342;2022-09-13T07:19:31;3.55;;;0.80;;
53890;SDS011;41337;51.400;-2.342;2022-09-13T07:24:32;6.35;;;0.70;;
53890;SDS011;41337;51.400;-2.342;2022-09-13T07:29:32;5.68;;;1.00;;
53890;SDS011;41337;51.400;-2.342;2022-09-13T07:34:33;3.88;;;0.70;;
53890;SDS011;41337;51.400;-2.342;2022-09-13T07:39:34;2.60;;;0.73;;
53890;SDS011;41337;51.400;-2.342;2022-09-13T07:44:35;3.70;;;0.90;;
53890;SDS011;41337;51.400;-2.342;2022-09-13T07:49:36;5.95;;;1.20;;
53890;SDS011;41337;51.400;-2.342;2022-09-13T07:54:37;4.80;;;0.85;;
53890;SDS011;41337;51.400;-2.342;2022-09-13T07:59:38;3.95;;;0.60;;
53890;SDS011;41337;51.400;-2.342;2022-09-13T08:04:38;3.45;;;0.90;;
53890;SDS011;41337;51.400;-2.342;2022-09-13T08:09:39;3.88;;;0.93;;
53890;SDS011;41337;51.400;-2.342;2022-09-13T08:14:44;3.70;;;0.98;;
53890;SDS011;41337;51.400;-2.342;2022-09-13T08:19:45;1.65;;;0.50;;
53890;SDS011;41337;51.400;-2.342;2022-09-13T08:24:45;1.88;;;0.60;;
53890;SDS011;41337;51.400;-2.342;2022-09-13T08:29:46;3.95;;;0.60;;
53890;SDS011;41337;51.400;-2.342;2022-09-13T08:34:47;2.58;;;0.77;;
53890;SDS011;41337;51.400;-2.342;2022-09-13T08:39:48;4.63;;;0.70;;
53890;SDS011;41337;51.400;-2.342;2022-09-13T08:44:52;5.93;;;0.95;;
53890;SDS011;41337;51.400;-2.342;2022-09-13T08:50:11;3.22;;;0.70;;
53890;SDS011;41337;51.400;-2.342;2022-09-13T08:55:47;3.72;;;0.82;;
53890;SDS011;41337;51.400;-2.342;2022-09-13T09:01:40;4.15;;;1.38;;
53890;SDS011;41337;51.400;-2.342;2022-09-13T09:06:32;8.75;;;2.03;;
53890;SDS011;41337;51.400;-2.342;2022-09-13T09:11:41;1.75;;;1.10;;
53890;SDS011;41337;51.400;-2.342;2022-09-13T09:16:50;6.60;;;1.83;;
53890;SDS011;41337;51.400;-2.342;2022-09-13T09:21:57;22.27;;;17.58;;
53890;SDS011;41337;51.400;-2.342;2022-09-13T09:26:58;8.80;;;4.85;;
53890;SDS011;41337;51.400;-2.342;2022-09-13T09:37:25;10.00;;;4.43;;
53890;SDS011;41337;51.400;-2.342;2022-09-13T09:42:29;10.68;;;8.77;;
53890;SDS011;41337;51.400;-2.342;2022-09-13T09:47:42;58.22;;;39.33;;
53890;SDS011;41337;51.400;-2.342;2022-09-13T10:03:15;5.68;;;3.17;;
53890;SDS011;41337;51.400;-2.342;2022-09-13T10:08:41;6.95;;;2.55;;
53890;SDS011;41337;51.400;-2.342;2022-09-13T10:14:01;7.78;;;3.25;;
53890;SDS011;41337;51.400;-2.342;2022-09-13T10:24:37;4.00;;;2.60;;
53890;SDS011;41337;51.400;-2.342;2022-09-13T10:29:38;5.35;;;2.85;;
53890;SDS011;41337;51.400;-2.342;2022-09-13T10:34:46;14.13;;;9.90;;
53890;SDS011;41337;51.400;-2.342;2022-09-13T10:40:12;25.75;;;18.33;;
53890;SDS011;41337;51.400;-2.342;2022-09-13T10:50:26;14.05;;;9.38;;
53890;SDS011;41337;51.400;-2.342;2022-09-13T10:55:51;18.05;;;12.23;;
53890;SDS011;41337;51.400;-2.342;2022-09-13T11:27:40;7.50;;;5.07;;
53890;SDS011;41337;51.400;-2.342;2022-09-13T11:33:18;6.47;;;3.57;;
53890;SDS011;41337;51.400;-2.342;2022-09-13T11:59:57;12.27;;;4.28;;
53890;SDS011;41337;51.400;-2.342;2022-09-13T12:05:22;7.15;;;3.30;;
53890;SDS011;41337;51.400;-2.342;2022-09-13T12:10:32;7.68;;;4.40;;
53890;SDS011;41337;51.400;-2.342;2022-09-13T12:15:50;4.50;;;4.10;;
53890;SDS011;41337;51.400;-2.342;2022-09-13T12:21:19;8.48;;;6.90;;
53890;SDS011;41337;51.400;-2.342;2022-09-13T12:26:25;8.80;;;5.93;;
53890;SDS011;41337;51.400;-2.342;2022-09-13T12:31:41;8.90;;;4.15;;
53890;SDS011;41337;51.400;-2.342;2022-09-13T12:36:57;6.15;;;2.90;;
53890;SDS011;41337;51.400;-2.342;2022-09-13T12:59:01;10.13;;;3.25;;
53890;SDS011;41337;51.400;-2.342;2022-09-13T13:04:31;4.30;;;2.53;;
53890;SDS011;41337;51.400;-2.342;2022-09-13T13:09:42;8.60;;;2.80;;
53890;SDS011;41337;51.400;-2.342;2022-09-13T13:14:46;9.38;;;2.58;;
53890;SDS011;41337;51.400;-2.342;2022-09-13T13:19:56;4.55;;;1.90;;
53890;SDS011;41337;51.400;-2.342;2022-09-13T13:35:45;4.13;;;2.10;;
53890;SDS011;41337;51.400;-2.342;2022-09-13T13:40:46;5.00;;;2.40;;
53890;SDS011;41337;51.400;-2.342;2022-09-13T13:45:56;4.40;;;3.00;;
53890;SDS011;41337;51.400;-2.342;2022-09-13T13:51:26;5.27;;;2.60;;
53890;SDS011;41337;51.400;-2.342;2022-09-13T13:56:44;4.05;;;1.65;;
53890;SDS011;41337;51.400;-2.342;2022-09-13T14:01:49;7.13;;;2.33;;
53890;SDS011;41337;51.400;-2.342;2022-09-13T14:12:31;9.52;;;3.10;;
53890;SDS011;41337;51.400;-2.342;2022-09-13T14:23:16;4.68;;;2.15;;
53890;SDS011;41337;51.400;-2.342;2022-09-13T14:28:18;6.07;;;2.22;;
53890;SDS011;41337;51.400;-2.342;2022-09-13T14:33:28;4.65;;;2.10;;
53890;SDS011;41337;51.400;-2.342;2022-09-13T14:38:34;5.13;;;2.38;;
53890;SDS011;41337;51.400;-2.342;2022-09-13T14:43:35;4.38;;;2.15;;
53890;SDS011;41337;51.400;-2.342;2022-09-13T14:48:58;2.40;;;1.80;;
53890;SDS011;41337;51.400;-2.342;2022-09-13T14:59:41;5.15;;;1.95;;
53890;SDS011;41337;51.400;-2.342;2022-09-13T15:04:47;3.33;;;1.77;;
53890;SDS011;41337;51.400;-2.342;2022-09-13T15:09:54;2.80;;;1.40;;
53890;SDS011;41337;51.400;-2.342;2022-09-13T15:20:19;4.30;;;1.33;;
53890;SDS011;41337;51.400;-2.342;2022-09-13T15:25:27;2.67;;;1.42;;
53890;SDS011;41337;51.400;-2.342;2022-09-13T15:30:30;6.22;;;2.25;;
53890;SDS011;41337;51.400;-2.342;2022-09-13T15:35:44;3.25;;;2.08;;
53890;SDS011;41337;51.400;-2.342;2022-09-13T15:40:55;2.78;;;1.60;;
53890;SDS011;41337;51.400;-2.342;2022-09-13T15:46:02;3.00;;;2.03;;
53890;SDS011;41337;51.400;-2.342;2022-09-13T15:56:16;4.03;;;1.73;;
53890;SDS011;41337;51.400;-2.342;2022-09-13T16:01:53;2.50;;;1.30;;
53890;SDS011;41337;51.400;-2.342;2022-09-13T16:06:55;5.65;;;1.20;;
53890;SDS011;41337;51.400;-2.342;2022-09-13T16:11:59;3.25;;;1.42;;
53890;SDS011;41337;51.400;-2.342;2022-09-13T16:17:04;5.90;;;1.10;;
53890;SDS011;41337;51.400;-2.342;2022-09-13T16:22:35;4.50;;;1.30;;
53890;SDS011;41337;51.400;-2.342;2022-09-13T16:27:36;2.28;;;1.15;;
53890;SDS011;41337;51.400;-2.342;2022-09-13T16:32:37;2.58;;;1.20;;
53890;SDS011;41337;51.400;-2.342;2022-09-13T16:37:38;4.10;;;1.60;;
53890;SDS011;41337;51.400;-2.342;2022-09-13T16:42:40;4.15;;;1.95;;
53890;SDS011;41337;51.400;-2.342;2022-09-13T16:47:41;1.77;;;1.13;;
53890;SDS011;41337;51.400;-2.342;2022-09-13T16:52:48;4.22;;;2.08;;
53890;SDS011;41337;51.400;-2.342;2022-09-13T16:57:48;2.67;;;1.88;;
53890;SDS011;41337;51.400;-2.342;2022-09-13T17:02:54;3.75;;;1.98;;
53890;SDS011;41337;51.400;-2.342;2022-09-13T17:07:57;3.85;;;2.38;;
53890;SDS011;41337;51.400;-2.342;2022-09-13T17:12:58;4.13;;;2.40;;
53890;SDS011;41337;51.400;-2.342;2022-09-13T17:17:59;8.30;;;2.78;;
53890;SDS011;41337;51.400;-2.342;2022-09-13T17:23:00;3.97;;;2.53;;
53890;SDS011;41337;51.400;-2.342;2022-09-13T17:28:01;5.57;;;2.88;;
53890;SDS011;41337;51.400;-2.342;2022-09-13T17:33:02;6.20;;;2.78;;
53890;SDS011;41337;51.400;-2.342;2022-09-13T17:38:08;7.95;;;2.72;;
53890;SDS011;41337;51.400;-2.342;2022-09-13T17:43:08;4.22;;;2.35;;
53890;SDS011;41337;51.400;-2.342;2022-09-13T17:48:09;4.93;;;2.60;;
53890;SDS011;41337;51.400;-2.342;2022-09-13T17:53:10;4.63;;;2.20;;
53890;SDS011;41337;51.400;-2.342;2022-09-13T17:58:12;4.60;;;2.08;;
53890;SDS011;41337;51.400;-2.342;2022-09-13T18:08:38;5.57;;;2.80;;
53890;SDS011;41337;51.400;-2.342;2022-09-13T18:13:39;5.63;;;3.50;;
53890;SDS011;41337;51.400;-2.342;2022-09-13T18:18:48;4.22;;;3.83;;
53890;SDS011;41337;51.400;-2.342;2022-09-13T18:23:57;5.63;;;4.20;;
53890;SDS011;41337;51.400;-2.342;2022-09-13T18:28:59;7.72;;;4.00;;
53890;SDS011;41337;51.400;-2.342;2022-09-13T18:34:06;6.70;;;4.45;;
53890;SDS011;41337;51.400;-2.342;2022-09-13T18:39:19;5.28;;;4.38;;
53890;SDS011;41337;51.400;-2.342;2022-09-13T18:44:24;6.15;;;3.67;;
53890;SDS011;41337;51.400;-2.342;2022-09-13T18:49:24;8.07;;;3.88;;
53890;SDS011;41337;51.400;-2.342;2022-09-13T18:54:25;7.22;;;4.68;;
53890;SDS011;41337;51.400;-2.342;2022-09-13T18:59:26;8.13;;;5.40;;
53890;SDS011;41337;51.400;-2.342;2022-09-13T19:04:29;7.60;;;5.43;;
53890;SDS011;41337;51.400;-2.342;2022-09-13T19:09:31;7.22;;;4.68;;
53890;SDS011;41337;51.400;-2.342;2022-09-13T19:14:36;10.40;;;5.63;;
53890;SDS011;41337;51.400;-2.342;2022-09-13T19:19:37;10.32;;;6.28;;
53890;SDS011;41337;51.400;-2.342;2022-09-13T19:24:38;7.18;;;5.90;;
53890;SDS011;41337;51.400;-2.342;2022-09-13T19:29:38;6.47;;;5.78;;
53890;SDS011;41337;51.400;-2.342;2022-09-13T19:34:39;7.30;;;6.07;;
53890;SDS011;41337;51.400;-2.342;2022-09-13T19:39:40;8.85;;;5.55;;
53890;SDS011;41337;51.400;-2.342;2022-09-13T19:44:41;6.60;;;4.78;;
53890;SDS011;41337;51.400;-2.342;2022-09-13T19:49:42;8.13;;;4.40;;
53890;SDS011;41337;51.400;-2.342;2022-09-13T19:54:48;7.57;;;4.47;;
53890;SDS011;41337;51.400;-2.342;2022-09-13T19:59:50;8.20;;;4.30;;
53890;SDS011;41337;51.400;-2.342;2022-09-13T20:04:51;4.57;;;3.47;;
53890;SDS011;41337;51.400;-2.342;2022-09-13T20:09:52;4.53;;;3.78;;
53890;SDS011;41337;51.400;-2.342;2022-09-13T20:14:53;4.88;;;3.80;;
53890;SDS011;41337;51.400;-2.342;2022-09-13T20:20:00;8.23;;;4.78;;
53890;SDS011;41337;51.400;-2.342;2022-09-13T20:25:01;7.45;;;4.20;;
53890;SDS011;41337;51.400;-2.342;2022-09-13T20:30:04;6.55;;;3.58;;
53890;SDS011;41337;51.400;-2.342;2022-09-13T20:35:10;7.85;;;4.25;;
53890;SDS011;41337;51.400;-2.342;2022-09-13T20:40:11;7.60;;;4.70;;
53890;SDS011;41337;51.400;-2.342;2022-09-13T20:45:12;9.68;;;5.00;;
53890;SDS011;41337;51.400;-2.342;2022-09-13T20:50:14;10.85;;;4.78;;
53890;SDS011;41337;51.400;-2.342;2022-09-13T20:55:19;10.98;;;4.47;;
53890;SDS011;41337;51.400;-2.342;2022-09-13T21:00:20;5.47;;;4.30;;
53890;SDS011;41337;51.400;-2.342;2022-09-13T21:05:20;6.78;;;4.70;;
53890;SDS011;41337;51.400;-2.342;2022-09-13T21:10:21;6.57;;;4.20;;
53890;SDS011;41337;51.400;-2.342;2022-09-13T21:15:23;8.85;;;4.75;;
53890;SDS011;41337;51.400;-2.342;2022-09-13T21:20:24;10.20;;;5.15;;
53890;SDS011;41337;51.400;-2.342;2022-09-13T21:25:25;7.93;;;4.38;;
53890;SDS011;41337;51.400;-2.342;2022-09-13T21:30:29;10.65;;;4.85;;
53890;SDS011;41337;51.400;-2.342;2022-09-13T21:35:30;11.82;;;5.13;;
53890;SDS011;41337;51.400;-2.342;2022-09-13T21:40:35;7.68;;;4.30;;
53890;SDS011;41337;51.400;-2.342;2022-09-13T21:45:42;10.98;;;5.00;;
53890;SDS011;41337;51.400;-2.342;2022-09-13T21:50:45;11.63;;;5.28;;
53890;SDS011;41337;51.400;-2.342;2022-09-13T21:55:46;5.82;;;4.47;;
53890;SDS011;41337;51.400;-2.342;2022-09-13T22:00:53;7.45;;;4.03;;
53890;SDS011;41337;51.400;-2.342;2022-09-13T22:05:54;8.15;;;4.45;;
53890;SDS011;41337;51.400;-2.342;2022-09-13T22:10:56;9.80;;;4.05;;
53890;SDS011;41337;51.400;-2.342;2022-09-13T22:16:07;8.27;;;4.70;;
53890;SDS011;41337;51.400;-2.342;2022-09-13T22:21:13;7.30;;;5.07;;
53890;SDS011;41337;51.400;-2.342;2022-09-13T22:26:21;9.93;;;4.13;;
53890;SDS011;41337;51.400;-2.342;2022-09-13T22:31:28;6.25;;;5.20;;
53890;SDS011;41337;51.400;-2.342;2022-09-13T22:36:31;9.52;;;5.00;;
53890;SDS011;41337;51.400;-2.342;2022-09-13T22:41:32;7.97;;;5.18;;
53890;SDS011;41337;51.400;-2.342;2022-09-13T22:46:41;10.98;;;5.35;;
53890;SDS011;41337;51.400;-2.342;2022-09-13T22:51:43;6.70;;;5.28;;
53890;SDS011;41337;51.400;-2.342;2022-09-13T22:56:45;10.85;;;4.70;;
53890;SDS011;41337;51.400;-2.342;2022-09-13T23:01:52;11.70;;;5.85;;
53890;SDS011;41337;51.400;-2.342;2022-09-13T23:06:52;6.90;;;4.75;;
53890;SDS011;41337;51.400;-2.342;2022-09-13T23:11:53;6.78;;;4.45;;
53890;SDS011;41337;51.400;-2.342;2022-09-13T23:16:54;9.70;;;6.10;;
53890;SDS011;41337;51.400;-2.342;2022-09-13T23:21:55;10.07;;;6.25;;
53890;SDS011;41337;51.400;-2.342;2022-09-13T23:26:56;12.55;;;6.50;;
53890;SDS011;41337;51.400;-2.342;2022-09-13T23:31:56;8.57;;;5.60;;
53890;SDS011;41337;51.400;-2.342;2022-09-13T23:36:57;9.43;;;6.00;;
53890;SDS011;41337;51.400;-2.342;2022-09-13T23:42:01;14.52;;;7.32;;
53890;SDS011;41337;51.400;-2.342;2022-09-13T23:47:05;13.13;;;7.00;;
53890;SDS011;41337;51.400;-2.342;2022-09-13T23:52:06;9.27;;;6.57;;
53890;SDS011;41337;51.400;-2.342;2022-09-13T23:57:07;9.77;;;6.88;;
